Terminal Aerodrome Forecast
Issued by NWS Lake Charles, LA

Home | Current Version | Previous Version | Text Only | Print | Product List | Glossary On
Versions: 1 2 3 4 5 6 7 8 9 10 11 12 13 14
000
FTUS44 KLCH 011100
TAFLCH
TAF
KLCH 011120Z 0112/0212 22003KT 6SM -SHRA OVC100
     FM011300 25006KT P6SM -SHRA VCTS BKN035CB
      TEMPO 0116/0120 3SM TSRA BKN025CB
     FM020200 VRB04KT P6SM SCT050 BKN200=

USA.gov is the U.S. government's official web portal to all federal, state and local government web resources and services.